Time;durP1;ratioP1;P1;durP2;ratioP2;P2;SDS_P1;SDS_P2;PMS_P1;PMS_P2;Temp;Humidity;BMP_temperature;BMP_pressure;BME280_temperature;BME280_humidity;BME280_pressure;Samples;Min_cycle;Max_cycle;Signal;HPM_P1;HPM_P2
2022/05/16 00:00:14;;;;;;;1.60;1.30;;;21.60;42.10;;;;;;5053554;28;20060;-81
2022/05/16 00:02:39;;;;;;;2.22;1.23;;;21.60;42.30;;;;;;5050867;28;20584;-81
2022/05/16 00:05:06;;;;;;;2.15;1.35;;;21.50;42.20;;;;;;5058697;28;20036;-80
2022/05/16 00:07:32;;;;;;;2.03;1.33;;;21.50;42.40;;;;;;5031668;28;20020;-81
2022/05/16 00:09:58;;;;;;;2.53;1.30;;;21.50;42.40;;;;;;5067053;28;20567;-81
2022/05/16 00:12:23;;;;;;;2.28;1.30;;;21.40;42.30;;;;;;5051946;28;20028;-81
2022/05/16 00:14:49;;;;;;;2.77;1.30;;;21.40;42.60;;;;;;5065148;28;20067;-81
2022/05/16 00:17:16;;;;;;;1.63;1.23;;;21.30;42.70;;;;;;5036570;28;20028;-80
2022/05/16 00:19:42;;;;;;;2.40;1.40;;;21.30;42.70;;;;;;5060046;28;20060;-81
2022/05/16 00:22:08;;;;;;;2.42;1.40;;;21.30;42.90;;;;;;5042729;28;20033;-81
2022/05/16 00:24:34;;;;;;;2.83;1.20;;;21.20;43.10;;;;;;5065247;28;20133;-81
2022/05/16 00:27:00;;;;;;;2.13;1.23;;;21.10;43.20;;;;;;5056425;28;20063;-80
2022/05/16 00:29:26;;;;;;;2.03;1.30;;;21.10;43.20;;;;;;5053595;28;22008;-80
2022/05/16 00:31:54;;;;;;;2.53;1.23;;;21.00;43.30;;;;;;5044824;28;20028;-81
2022/05/16 00:34:20;;;;;;;2.17;1.40;;;21.00;43.40;;;;;;5028371;28;20059;-80
2022/05/16 00:36:48;;;;;;;1.95;1.33;;;21.00;43.60;;;;;;5054034;28;20040;-81
2022/05/16 00:39:16;;;;;;;3.23;1.50;;;20.90;43.60;;;;;;5065218;28;20028;-81
2022/05/16 00:41:42;;;;;;;2.28;1.50;;;20.90;43.90;;;;;;5027461;28;20043;-81
2022/05/16 00:44:09;;;;;;;2.50;1.20;;;20.80;44.00;;;;;;5045846;28;20078;-81
2022/05/16 00:46:34;;;;;;;2.25;1.20;;;20.80;44.10;;;;;;5048597;28;20262;-80
2022/05/16 00:49:04;;;;;;;2.43;1.20;;;20.70;44.10;;;;;;5041048;28;20254;-80
2022/05/16 00:51:34;;;;;;;1.73;1.20;;;20.70;44.40;;;;;;5027819;28;20505;-80
2022/05/16 00:54:33;;;;;;;2.10;1.40;;;20.70;44.70;;;;;;5038394;28;20280;-81
2022/05/16 00:57:05;;;;;;;1.52;1.20;;;20.70;45.70;;;;;;5045865;28;20398;-80
2022/05/16 00:59:41;;;;;;;2.65;1.38;;;20.60;45.00;;;;;;5031761;28;20406;-80
2022/05/16 01:04:54;;;;;;;1.58;1.20;;;20.50;44.70;;;;;;5049499;28;20528;-80
2022/05/16 01:07:26;;;;;;;1.95;1.30;;;20.60;44.70;;;;;;5046287;28;20303;-80
2022/05/16 01:09:52;;;;;;;1.95;1.60;;;20.60;46.10;;;;;;5051779;28;20032;-81
2022/05/16 01:12:18;;;;;;;2.75;1.30;;;20.50;45.10;;;;;;5056698;28;20096;-80
2022/05/16 01:14:56;;;;;;;2.33;1.50;;;20.50;45.20;;;;;;5053362;28;20377;-80
2022/05/16 01:17:22;;;;;;;2.53;1.42;;;20.50;46.40;;;;;;5066627;28;20064;-81
2022/05/16 01:19:49;;;;;;;2.67;1.42;;;20.50;45.50;;;;;;5047429;28;20364;-81
2022/05/16 01:22:29;;;;;;;2.10;1.20;;;20.40;45.50;;;;;;5046677;28;20264;-80
2022/05/16 01:24:58;;;;;;;3.75;1.30;;;20.40;46.50;;;;;;5046984;28;20067;-80
2022/05/16 01:27:24;;;;;;;1.45;1.10;;;20.40;46.00;;;;;;5049793;28;20708;-80
2022/05/16 01:29:50;;;;;;;2.20;1.38;;;20.40;45.80;;;;;;5035716;28;20025;-80
2022/05/16 01:32:16;;;;;;;2.42;1.30;;;20.40;46.00;;;;;;5038703;28;20059;-80
2022/05/16 01:34:43;;;;;;;2.40;1.50;;;20.40;46.20;;;;;;5035065;28;20476;-80
2022/05/16 01:37:09;;;;;;;2.40;1.38;;;20.40;46.30;;;;;;5053518;28;20492;-80
2022/05/16 01:39:35;;;;;;;1.77;1.48;;;20.40;46.40;;;;;;5035872;28;20310;-81
2022/05/16 01:42:00;;;;;;;1.53;1.30;;;20.40;46.40;;;;;;5053731;28;20092;-80
2022/05/16 01:44:26;;;;;;;2.83;1.50;;;20.40;46.50;;;;;;5035613;28;20032;-80
2022/05/16 01:46:52;;;;;;;2.17;1.20;;;20.40;46.50;;;;;;5060754;28;20040;-80
2022/05/16 01:49:18;;;;;;;2.05;1.27;;;20.40;46.60;;;;;;5011616;28;20459;-80
2022/05/16 01:51:43;;;;;;;3.42;1.25;;;20.40;46.70;;;;;;5056120;28;20071;-80
2022/05/16 01:54:10;;;;;;;1.87;1.20;;;20.40;46.80;;;;;;5040569;28;20044;-80
2022/05/16 01:56:36;;;;;;;2.35;1.60;;;20.40;46.90;;;;;;5040389;28;20253;-80
2022/05/16 01:59:04;;;;;;;1.77;1.20;;;20.40;47.00;;;;;;5035740;28;20075;-80
2022/05/16 02:01:30;;;;;;;1.53;1.20;;;20.40;47.30;;;;;;5034040;28;20249;-80
2022/05/16 02:03:56;;;;;;;1.58;1.20;;;20.40;47.30;;;;;;5035567;28;20044;-80
2022/05/16 02:06:22;;;;;;;2.15;1.48;;;20.30;47.20;;;;;;5048128;28;20812;-80
2022/05/16 02:08:48;;;;;;;2.75;1.33;;;20.30;47.20;;;;;;5060841;28;20039;-80
2022/05/16 02:11:15;;;;;;;2.47;1.37;;;20.30;47.30;;;;;;5031139;28;20045;-80
2022/05/16 02:13:42;;;;;;;2.08;1.30;;;20.30;47.50;;;;;;5061639;28;20131;-80
2022/05/16 02:16:09;;;;;;;2.30;1.40;;;20.30;47.70;;;;;;5048998;28;20045;-81
2022/05/16 02:18:36;;;;;;;2.30;1.60;;;20.30;47.70;;;;;;5024791;28;20287;-80
2022/05/16 02:26:32;;;;;;;1.50;1.40;;;20.20;47.70;;;;;;5038553;28;20273;-80
2022/05/16 02:28:58;;;;;;;3.25;1.50;;;20.20;47.70;;;;;;5064249;28;20029;-80
2022/05/16 02:31:24;;;;;;;2.60;1.40;;;20.20;47.80;;;;;;5049659;28;20473;-80
2022/05/16 02:33:49;;;;;;;1.97;1.40;;;20.20;47.90;;;;;;5034943;28;20115;-80
2022/05/16 02:36:15;;;;;;;2.47;1.60;;;20.20;48.20;;;;;;5031420;28;20114;-80
2022/05/16 02:38:42;;;;;;;1.67;1.45;;;20.10;48.20;;;;;;5042867;28;20037;-80
2022/05/16 02:41:08;;;;;;;1.90;1.40;;;20.10;48.30;;;;;;5008496;28;20555;-80
2022/05/16 02:43:34;;;;;;;2.10;1.35;;;20.10;48.40;;;;;;5063613;28;20032;-80
2022/05/16 02:46:00;;;;;;;3.08;1.55;;;20.10;48.50;;;;;;5031849;28;21372;-80
2022/05/16 02:48:25;;;;;;;2.03;1.50;;;20.10;48.60;;;;;;5041840;28;20765;-80
2022/05/16 02:50:51;;;;;;;2.55;1.45;;;20.00;48.80;;;;;;5051850;28;20355;-80
2022/05/16 02:53:16;;;;;;;1.73;1.40;;;20.00;48.80;;;;;;5023968;28;20496;-80
2022/05/16 02:55:44;;;;;;;2.40;1.43;;;20.00;48.80;;;;;;5016180;28;20035;-81
2022/05/16 02:58:10;;;;;;;1.70;1.40;;;20.00;49.70;;;;;;5034627;28;20815;-80
2022/05/16 03:00:37;;;;;;;1.80;1.33;;;20.00;49.10;;;;;;5043240;28;20027;-80
2022/05/16 03:03:03;;;;;;;2.33;1.50;;;20.00;49.30;;;;;;5034323;28;20112;-80
2022/05/16 03:05:29;;;;;;;2.70;1.40;;;20.00;49.40;;;;;;5033141;28;20342;-80
2022/05/16 03:07:55;;;;;;;2.53;1.43;;;19.90;49.50;;;;;;5048702;28;20036;-80
2022/05/16 03:10:20;;;;;;;1.83;1.20;;;20.00;49.50;;;;;;5052333;28;20191;-80
2022/05/16 03:12:46;;;;;;;2.40;1.40;;;19.90;49.50;;;;;;5025971;28;20353;-80
2022/05/16 03:15:14;;;;;;;2.50;1.50;;;19.90;49.60;;;;;;5040076;28;20582;-80
2022/05/16 03:17:40;;;;;;;1.80;1.60;;;19.90;49.80;;;;;;5040666;28;20043;-81
2022/05/16 03:20:08;;;;;;;2.88;1.50;;;19.90;50.50;;;;;;5062026;28;20397;-80
2022/05/16 03:22:34;;;;;;;2.00;1.50;;;19.80;50.00;;;;;;5030288;28;20028;-81
2022/05/16 03:25:00;;;;;;;2.67;1.42;;;19.90;49.90;;;;;;5051748;28;20036;-80
2022/05/16 03:27:25;;;;;;;2.30;1.40;;;19.80;50.00;;;;;;5044135;28;20200;-80
2022/05/16 03:29:51;;;;;;;2.67;1.50;;;19.80;50.10;;;;;;5069257;28;20025;-81
2022/05/16 03:32:18;;;;;;;1.60;1.40;;;19.80;50.30;;;;;;5039636;28;20528;-80
2022/05/16 03:34:43;;;;;;;3.33;1.33;;;19.80;50.60;;;;;;5030207;28;20032;-81
2022/05/16 03:37:09;;;;;;;2.45;1.40;;;19.80;50.60;;;;;;5022759;28;20028;-80
2022/05/16 03:42:19;;;;;;;2.73;1.60;;;19.70;50.80;;;;;;5037808;28;20725;-80
2022/05/16 03:44:45;;;;;;;2.30;1.48;;;19.70;50.80;;;;;;5057451;28;20032;-81
2022/05/16 03:47:11;;;;;;;2.70;1.50;;;19.70;51.10;;;;;;5039552;28;20033;-80
2022/05/16 03:49:38;;;;;;;2.67;1.58;;;19.60;51.00;;;;;;5038078;28;20052;-80
2022/05/16 03:52:03;;;;;;;3.00;1.60;;;19.60;51.10;;;;;;5054643;28;20123;-80
2022/05/16 03:54:29;;;;;;;3.10;1.50;;;19.60;51.30;;;;;;5048386;28;20287;-80
2022/05/16 03:56:55;;;;;;;1.98;1.50;;;19.70;51.40;;;;;;5044064;28;20119;-80
2022/05/16 03:59:20;;;;;;;3.13;1.63;;;19.70;51.50;;;;;;5026262;28;20221;-80
2022/05/16 04:01:46;;;;;;;2.22;1.70;;;19.70;51.60;;;;;;5036845;28;20047;-80
2022/05/16 04:04:12;;;;;;;2.00;1.50;;;19.70;52.40;;;;;;5061159;28;20547;-80
2022/05/16 04:06:38;;;;;;;2.38;1.40;;;19.70;51.80;;;;;;5049967;28;20037;-80
2022/05/16 04:09:04;;;;;;;3.10;1.70;;;19.70;51.80;;;;;;5021790;28;22258;-80
2022/05/16 04:11:30;;;;;;;2.53;1.70;;;19.80;51.90;;;;;;5055587;28;20401;-80
2022/05/16 04:13:56;;;;;;;2.67;1.60;;;19.80;52.10;;;;;;5024983;28;20070;-80
2022/05/16 04:16:22;;;;;;;2.85;1.40;;;19.80;52.20;;;;;;5054213;28;20411;-80
2022/05/16 04:18:48;;;;;;;2.23;1.60;;;19.90;52.20;;;;;;5044313;28;20016;-80
2022/05/16 04:21:14;;;;;;;2.75;1.63;;;19.80;52.20;;;;;;5049336;28;20230;-80
2022/05/16 04:23:41;;;;;;;3.40;1.80;;;19.90;52.40;;;;;;5062008;28;20032;-80
2022/05/16 04:26:06;;;;;;;3.50;1.70;;;19.90;52.50;;;;;;5019298;28;20039;-80
2022/05/16 04:28:32;;;;;;;2.42;1.75;;;19.90;52.60;;;;;;5064135;28;20236;-80
2022/05/16 04:30:58;;;;;;;1.90;1.50;;;19.90;52.60;;;;;;5022548;28;20040;-80
2022/05/16 04:33:24;;;;;;;1.70;1.43;;;19.90;52.70;;;;;;5031864;28;20028;-80
2022/05/16 04:35:49;;;;;;;2.97;1.50;;;19.90;52.70;;;;;;5032973;28;20056;-80
2022/05/16 04:38:15;;;;;;;3.40;1.60;;;19.90;52.80;;;;;;5034724;28;20482;-80
2022/05/16 04:43:26;;;;;;;2.28;1.60;;;19.90;52.70;;;;;;5058633;28;20040;-80
2022/05/16 04:45:51;;;;;;;3.23;1.60;;;19.90;52.70;;;;;;5026494;28;20039;-80
2022/05/16 04:48:17;;;;;;;3.80;1.65;;;19.90;52.90;;;;;;5033888;28;20183;-80
2022/05/16 04:50:43;;;;;;;1.70;1.40;;;19.90;52.90;;;;;;5037358;28;20682;-80
2022/05/16 04:53:08;;;;;;;2.63;1.40;;;20.00;53.00;;;;;;5041601;28;20116;-80
2022/05/16 04:55:35;;;;;;;2.00;1.60;;;20.00;53.10;;;;;;5047087;28;20160;-80
2022/05/16 04:58:00;;;;;;;1.77;1.58;;;20.00;53.20;;;;;;5049011;28;20086;-80
2022/05/16 05:00:27;;;;;;;2.13;1.52;;;20.00;53.20;;;;;;5016920;28;20495;-80
2022/05/16 05:02:53;;;;;;;3.13;1.70;;;20.00;53.20;;;;;;5043642;28;20086;-80
2022/05/16 05:05:19;;;;;;;1.83;1.42;;;20.00;53.10;;;;;;5018083;28;20032;-80
2022/05/16 05:07:46;;;;;;;1.88;1.50;;;20.00;53.20;;;;;;5049713;28;20031;-80
2022/05/16 05:15:44;;;;;;;2.58;1.52;;;20.10;53.50;;;;;;5047788;28;20036;-81
2022/05/16 05:18:10;;;;;;;2.30;1.60;;;20.10;53.70;;;;;;5042957;28;20033;-80
2022/05/16 05:20:37;;;;;;;3.10;1.60;;;20.10;53.70;;;;;;5048369;28;20766;-80
2022/05/16 05:23:04;;;;;;;2.72;1.70;;;20.10;53.90;;;;;;5048410;28;20044;-80
2022/05/16 05:25:32;;;;;;;3.00;1.50;;;20.20;54.10;;;;;;5044343;28;20466;-80
2022/05/16 05:28:03;;;;;;;2.15;1.52;;;20.20;53.90;;;;;;5041591;28;20213;-80
2022/05/16 05:30:30;;;;;;;2.57;1.67;;;20.20;54.40;;;;;;5051807;28;20516;-80
2022/05/16 05:32:56;;;;;;;1.90;1.45;;;20.30;54.10;;;;;;5038549;28;20033;-80
2022/05/16 05:35:22;;;;;;;4.85;1.67;;;20.30;54.30;;;;;;5049205;28;20145;-80
2022/05/16 05:37:48;;;;;;;4.10;1.83;;;20.40;54.40;;;;;;5029224;28;20953;-80
2022/05/16 05:40:14;;;;;;;3.23;1.50;;;20.50;54.40;;;;;;5035946;28;20025;-80
2022/05/16 05:42:40;;;;;;;2.25;1.50;;;20.60;55.20;;;;;;5024110;28;20115;-80
2022/05/16 05:45:08;;;;;;;3.05;1.73;;;20.70;54.50;;;;;;5064671;28;20020;-80
2022/05/16 05:47:33;;;;;;;2.55;1.70;;;20.70;54.70;;;;;;5027001;28;20035;-80
2022/05/16 05:50:00;;;;;;;3.27;1.50;;;20.80;54.80;;;;;;5025349;28;20255;-80
2022/05/16 05:52:28;;;;;;;2.67;1.60;;;20.90;54.70;;;;;;5050235;28;20396;-81
2022/05/16 05:54:54;;;;;;;2.85;1.55;;;21.00;54.70;;;;;;5035470;28;20542;-80
2022/05/16 05:57:20;;;;;;;2.55;1.50;;;21.00;54.70;;;;;;5063278;28;20029;-80
2022/05/16 05:59:46;;;;;;;2.80;1.80;;;21.10;54.80;;;;;;5034094;28;20284;-80
2022/05/16 06:02:12;;;;;;;3.28;1.60;;;21.10;54.90;;;;;;5050746;28;20036;-81
2022/05/16 06:04:38;;;;;;;2.37;1.50;;;21.20;55.10;;;;;;5021123;28;20044;-80
2022/05/16 06:07:04;;;;;;;2.67;1.55;;;21.20;55.00;;;;;;5059129;28;20497;-81
2022/05/16 06:09:29;;;;;;;2.38;1.60;;;21.30;55.00;;;;;;5019564;28;20079;-80
2022/05/16 06:11:58;;;;;;;2.27;1.40;;;21.30;55.00;;;;;;5047045;28;20177;-80
2022/05/16 06:14:27;;;;;;;2.28;1.42;;;21.40;54.60;;;;;;5031146;28;20153;-80
2022/05/16 06:16:54;;;;;;;2.70;1.38;;;21.40;54.60;;;;;;5039954;28;20052;-80
2022/05/16 06:19:20;;;;;;;1.67;1.30;;;21.40;54.50;;;;;;5060859;28;20120;-80
2022/05/16 06:21:46;;;;;;;2.50;1.30;;;21.40;54.20;;;;;;5012517;28;20037;-80
2022/05/16 06:26:58;;;;;;;2.47;1.50;;;21.40;54.20;;;;;;5065816;28;20081;-80
2022/05/16 06:29:25;;;;;;;2.73;1.37;;;21.40;54.20;;;;;;5059425;28;20087;-80
2022/05/16 06:31:51;;;;;;;3.22;1.67;;;21.50;54.40;;;;;;5038910;28;20106;-80
2022/05/16 06:34:16;;;;;;;2.28;1.50;;;21.50;54.50;;;;;;5078090;28;20336;-80
2022/05/16 06:36:42;;;;;;;2.67;1.40;;;21.60;54.70;;;;;;5015979;28;21588;-80
2022/05/16 06:39:08;;;;;;;1.42;1.20;;;21.70;54.90;;;;;;5048312;28;20028;-80
2022/05/16 06:41:34;;;;;;;4.87;1.40;;;21.80;55.00;;;;;;5035303;28;20032;-80
2022/05/16 06:44:01;;;;;;;2.30;1.40;;;21.90;55.00;;;;;;5049450;28;20127;-80
2022/05/16 06:46:27;;;;;;;2.35;1.48;;;22.00;55.10;;;;;;5044774;28;20371;-80
2022/05/16 06:48:53;;;;;;;5.35;1.40;;;22.10;55.00;;;;;;5064291;28;20276;-80
2022/05/16 06:51:19;;;;;;;2.92;1.60;;;22.30;55.10;;;;;;5055179;28;20100;-80
2022/05/16 06:53:44;;;;;;;1.67;1.30;;;22.40;55.10;;;;;;5022583;28;20309;-80
2022/05/16 06:56:10;;;;;;;3.07;1.47;;;22.60;55.10;;;;;;5047375;28;20033;-80
2022/05/16 06:58:36;;;;;;;1.98;1.27;;;22.70;55.10;;;;;;5035990;28;20056;-80
2022/05/16 07:01:02;;;;;;;1.50;1.20;;;22.80;55.00;;;;;;5036211;28;20036;-79
2022/05/16 07:03:28;;;;;;;1.43;1.10;;;23.00;55.00;;;;;;5041040;28;20039;-80
2022/05/16 07:05:55;;;;;;;2.03;1.30;;;23.20;55.00;;;;;;5031167;28;20138;-80
2022/05/16 07:08:21;;;;;;;2.50;1.17;;;23.30;54.90;;;;;;5014454;28;20043;-80
2022/05/16 07:10:48;;;;;;;1.67;1.27;;;23.40;54.70;;;;;;5027174;28;20032;-80
2022/05/16 07:13:15;;;;;;;2.43;1.20;;;23.60;54.50;;;;;;5033553;28;20033;-80
2022/05/16 07:15:41;;;;;;;1.50;1.10;;;23.70;54.50;;;;;;5052859;28;20183;-80
2022/05/16 07:18:09;;;;;;;3.40;1.30;;;23.90;54.50;;;;;;5047447;28;20033;-82
2022/05/16 07:20:35;;;;;;;2.22;1.23;;;24.00;54.40;;;;;;5042326;28;20032;-80
2022/05/16 07:23:01;;;;;;;1.92;1.35;;;24.20;54.20;;;;;;5032566;28;22164;-79
2022/05/16 07:25:27;;;;;;;2.17;1.37;;;24.30;54.10;;;;;;5018534;28;20130;-81
2022/05/16 07:27:57;;;;;;;1.55;1.30;;;24.50;53.90;;;;;;5059354;28;20148;-81
2022/05/16 07:30:34;;;;;;;2.03;1.20;;;24.60;53.60;;;;;;5033718;28;20186;-80
2022/05/16 07:33:01;;;;;;;2.75;1.30;;;24.70;53.70;;;;;;5053521;28;20044;-80
2022/05/16 07:35:32;;;;;;;1.97;1.30;;;24.90;53.50;;;;;;5041729;28;20281;-80
2022/05/16 07:37:59;;;;;;;2.58;1.45;;;25.00;53.30;;;;;;5027821;28;20032;-80
2022/05/16 07:40:35;;;;;;;3.13;1.40;;;25.10;53.30;;;;;;5023768;28;20071;-80
2022/05/16 07:43:04;;;;;;;1.50;1.38;;;25.30;53.60;;;;;;5067723;28;20449;-81
2022/05/16 07:45:30;;;;;;;2.13;1.33;;;25.40;53.60;;;;;;5050284;28;20731;-81
2022/05/16 07:47:56;;;;;;;2.63;1.40;;;25.60;53.80;;;;;;5038981;28;20040;-80
2022/05/16 07:50:25;;;;;;;3.25;1.50;;;25.80;54.00;;;;;;5047867;28;20032;-79
2022/05/16 07:52:50;;;;;;;3.25;1.40;;;26.10;54.00;;;;;;5069039;28;20265;-80
2022/05/16 07:55:22;;;;;;;2.78;1.48;;;26.30;53.70;;;;;;5009736;28;20032;-80
2022/05/16 07:57:47;;;;;;;3.60;1.77;;;26.60;53.60;;;;;;5029483;28;20025;-80
2022/05/16 08:00:15;;;;;;;2.67;1.60;;;26.90;53.40;;;;;;5045466;28;20079;-79
2022/05/16 08:02:41;;;;;;;2.38;1.60;;;27.20;52.90;;;;;;5065271;28;20094;-80
2022/05/16 08:05:15;;;;;;;2.43;1.30;;;27.50;52.80;;;;;;5059579;28;20059;-82
2022/05/16 08:10:29;;;;;;;2.05;1.40;;;28.20;52.90;;;;;;5035190;28;20113;-80
2022/05/16 08:12:54;;;;;;;2.20;1.30;;;28.50;52.40;;;;;;5030227;28;20108;-81
2022/05/16 08:15:20;;;;;;;1.80;1.50;;;28.80;51.80;;;;;;5033810;28;20104;-79
2022/05/16 08:17:45;;;;;;;6.07;1.80;;;29.00;50.20;;;;;;5053118;28;20094;-82
2022/05/16 08:20:11;;;;;;;1.73;1.40;;;29.10;49.10;;;;;;5057190;28;20041;-81
2022/05/16 08:22:37;;;;;;;2.35;1.45;;;29.10;49.00;;;;;;5061595;28;20037;-80
2022/05/16 08:25:04;;;;;;;3.77;1.40;;;29.10;49.10;;;;;;5029926;28;20032;-80
2022/05/16 08:27:29;;;;;;;2.55;1.48;;;29.10;49.20;;;;;;5010175;28;20704;-81
2022/05/16 08:29:55;;;;;;;2.10;1.40;;;29.20;49.70;;;;;;5042295;28;20548;-80
2022/05/16 08:32:23;;;;;;;3.70;1.50;;;29.40;49.50;;;;;;5060197;28;20060;-81
2022/05/16 08:34:58;;;;;;;3.22;1.67;;;29.50;48.60;;;;;;5036493;28;20064;-82
2022/05/16 08:40:09;;;;;;;2.80;1.70;;;29.40;47.30;;;;;;5055711;28;20041;-81
2022/05/16 08:42:34;;;;;;;4.20;1.60;;;29.30;47.20;;;;;;5002859;28;20068;-82
2022/05/16 08:45:08;;;;;;;1.50;1.40;;;29.30;47.80;;;;;;5034581;28;20036;-81
2022/05/16 08:47:37;;;;;;;2.65;1.70;;;29.30;47.70;;;;;;5064264;28;20666;-80
2022/05/16 08:50:13;;;;;;;3.08;1.75;;;29.20;47.20;;;;;;5035855;28;20560;-82
2022/05/16 08:52:59;;;;;;;4.15;1.52;;;29.10;47.00;;;;;;5039976;28;20264;-81
2022/05/16 08:55:45;;;;;;;3.30;1.70;;;29.10;48.00;;;;;;5054625;28;20312;-80
2022/05/16 08:58:29;;;;;;;3.17;1.80;;;29.30;48.50;;;;;;5021975;28;20411;-81
2022/05/16 09:01:03;;;;;;;3.33;1.70;;;29.50;49.10;;;;;;5039160;28;20036;-79
2022/05/16 09:03:50;;;;;;;2.47;1.60;;;29.90;49.20;;;;;;5069603;28;20776;-80
2022/05/16 09:06:24;;;;;;;2.70;1.77;;;30.30;48.10;;;;;;5059030;28;20142;-81
2022/05/16 09:09:04;;;;;;;2.05;1.67;;;30.60;47.90;;;;;;5044516;28;20038;-83
2022/05/16 09:11:54;;;;;;;3.03;1.70;;;30.90;47.30;;;;;;5040212;28;20032;-81
2022/05/16 09:14:39;;;;;;;2.55;1.70;;;31.20;45.50;;;;;;5042786;28;20308;-80
2022/05/16 09:17:19;;;;;;;2.05;1.58;;;31.40;45.00;;;;;;5053464;28;20310;-83
2022/05/16 09:20:23;;;;;;;2.65;1.70;;;31.40;45.00;;;;;;5030935;28;20119;-81
2022/05/16 09:23:28;;;;;;;2.65;1.80;;;31.30;43.60;;;;;;5052688;28;20473;-80
2022/05/16 09:26:15;;;;;;;2.83;1.63;;;31.20;44.20;;;;;;5065053;28;20036;-79
2022/05/16 09:28:46;;;;;;;2.72;1.70;;;31.00;44.20;;;;;;5044294;28;20047;-81
2022/05/16 09:31:20;;;;;;;3.38;1.63;;;30.80;44.20;;;;;;5049377;28;20064;-81
2022/05/16 09:33:52;;;;;;;3.00;1.70;;;30.60;44.10;;;;;;5050887;28;20064;-83
2022/05/16 09:36:33;;;;;;;4.13;1.90;;;30.40;44.10;;;;;;5035098;28;20027;-82
2022/05/16 09:38:59;;;;;;;2.70;1.90;;;30.20;44.30;;;;;;5041765;28;20028;-79
2022/05/16 09:41:34;;;;;;;3.83;2.20;;;30.00;44.40;;;;;;5045362;28;20397;-80
2022/05/16 09:44:30;;;;;;;3.20;1.90;;;29.80;44.40;;;;;;5032054;28;20126;-80
2022/05/16 09:47:18;;;;;;;2.85;1.98;;;29.60;44.60;;;;;;5047718;28;20084;-80
2022/05/16 09:49:46;;;;;;;2.70;1.90;;;29.40;44.80;;;;;;5053084;28;20020;-83
2022/05/16 09:52:21;;;;;;;2.60;1.70;;;29.20;44.40;;;;;;5072958;28;20040;-80
2022/05/16 09:55:03;;;;;;;3.10;2.10;;;29.00;44.80;;;;;;5070244;28;20566;-82
2022/05/16 09:57:37;;;;;;;3.72;2.30;;;28.80;45.50;;;;;;5073999;28;20464;-82
2022/05/16 10:00:36;;;;;;;3.10;1.95;;;28.60;45.00;;;;;;5016844;28;20059;-79
2022/05/16 10:03:14;;;;;;;3.65;2.10;;;28.40;45.70;;;;;;5024835;28;20493;-80
2022/05/16 10:05:47;;;;;;;4.43;2.20;;;28.30;46.00;;;;;;5068454;28;20056;-81
2022/05/16 10:08:22;;;;;;;4.05;2.20;;;28.10;46.20;;;;;;5067883;28;20149;-79
2022/05/16 10:10:48;;;;;;;5.03;2.25;;;28.00;46.10;;;;;;5064576;28;20400;-82
2022/05/16 10:13:16;;;;;;;4.32;2.17;;;27.80;46.20;;;;;;5059017;28;20036;-82
2022/05/16 10:15:43;;;;;;;3.05;2.22;;;27.70;46.50;;;;;;5055243;28;20048;-82
2022/05/16 10:18:13;;;;;;;4.03;2.30;;;27.60;46.70;;;;;;5025669;28;21176;-82
2022/05/16 10:20:45;;;;;;;4.05;2.70;;;27.40;46.90;;;;;;5045119;28;20028;-82
2022/05/16 10:23:25;;;;;;;3.75;2.50;;;27.30;47.20;;;;;;5064254;28;20240;-80
2022/05/16 10:25:55;;;;;;;5.60;2.60;;;27.10;47.20;;;;;;5044703;28;20032;-82
2022/05/16 10:28:28;;;;;;;4.00;2.45;;;26.90;47.40;;;;;;5056680;28;20202;-83
2022/05/16 10:33:42;;;;;;;3.97;2.30;;;26.70;47.80;;;;;;5057973;28;20044;-81
2022/05/16 10:36:13;;;;;;;3.75;2.40;;;26.60;48.00;;;;;;5033997;28;20146;-80
2022/05/16 10:38:46;;;;;;;3.28;2.40;;;26.50;48.50;;;;;;5063590;28;20120;-79
2022/05/16 10:41:23;;;;;;;4.20;2.90;;;26.30;49.00;;;;;;5066844;28;20028;-83
2022/05/16 10:44:08;;;;;;;4.23;2.30;;;26.20;49.70;;;;;;5072340;28;20044;-80
2022/05/16 10:46:37;;;;;;;3.67;2.72;;;26.10;49.60;;;;;;5030124;28;20041;-82
2022/05/16 10:49:12;;;;;;;3.58;2.50;;;25.90;49.20;;;;;;5028115;28;20186;-81
2022/05/16 10:51:47;;;;;;;4.03;2.38;;;25.80;49.80;;;;;;5028561;28;20241;-80
2022/05/16 10:54:18;;;;;;;3.58;2.50;;;25.70;49.70;;;;;;5049808;28;20095;-81
2022/05/16 10:56:59;;;;;;;3.07;2.33;;;25.60;50.00;;;;;;5076647;28;20039;-80
2022/05/16 10:59:52;;;;;;;4.03;2.20;;;25.50;50.60;;;;;;5036312;28;20052;-80
2022/05/16 11:02:56;;;;;;;4.00;2.50;;;25.50;50.90;;;;;;5059196;28;20036;-80
2022/05/16 11:05:43;;;;;;;3.45;2.67;;;25.50;51.10;;;;;;5026731;28;20047;-84
2022/05/16 11:08:47;;;;;;;3.60;2.28;;;25.50;50.70;;;;;;5077377;28;20166;-79
2022/05/16 11:11:40;;;;;;;3.70;2.40;;;25.70;51.40;;;;;;5061672;28;20070;-80
2022/05/16 11:14:24;;;;;;;4.00;2.42;;;25.80;51.30;;;;;;5040758;28;20036;-80
2022/05/16 11:16:54;;;;;;;3.35;2.42;;;25.90;51.00;;;;;;5076982;28;20473;-81
2022/05/16 11:19:41;;;;;;;3.60;2.60;;;26.10;50.80;;;;;;5026467;28;20872;-83
2022/05/16 11:22:13;;;;;;;3.35;2.47;;;26.20;50.90;;;;;;5051111;28;20075;-79
2022/05/16 11:25:11;;;;;;;3.43;2.33;;;26.30;51.00;;;;;;5054383;28;20226;-83
2022/05/16 11:27:55;;;;;;;3.08;2.20;;;26.50;51.20;;;;;;5026072;28;20056;-80
2022/05/16 11:30:47;;;;;;;3.80;2.50;;;26.90;51.10;;;;;;5054982;28;20040;-82
2022/05/16 11:33:18;;;;;;;2.72;2.17;;;27.10;50.40;;;;;;5042062;28;20565;-80
2022/05/16 11:35:47;;;;;;;3.67;2.40;;;27.30;49.90;;;;;;5031214;28;20033;-83
2022/05/16 11:38:48;;;;;;;3.73;2.13;;;27.50;49.30;;;;;;5038259;28;20402;-81
2022/05/16 11:41:17;;;;;;;3.72;2.03;;;27.60;49.20;;;;;;5057793;28;20032;-81
2022/05/16 11:43:48;;;;;;;3.55;2.53;;;27.80;50.00;;;;;;5040615;28;20036;-82
2022/05/16 11:46:43;;;;;;;3.78;2.35;;;28.00;50.00;;;;;;5057943;28;20036;-80
2022/05/16 11:49:30;;;;;;;3.75;2.08;;;28.30;49.60;;;;;;4988620;28;20044;-82
2022/05/16 11:52:41;;;;;;;2.77;2.07;;;28.50;48.00;;;;;;5030636;28;20059;-83
2022/05/16 12:01:01;;;;;;;3.33;2.17;;;29.00;47.80;;;;;;5056356;28;20036;-80
2022/05/16 12:04:22;;;;;;;3.15;2.05;;;29.10;46.30;;;;;;5065896;28;20040;-81
2022/05/16 12:06:58;;;;;;;3.17;1.90;;;29.10;46.00;;;;;;5037189;28;20040;-81
2022/05/16 12:09:31;;;;;;;2.42;1.70;;;29.00;46.40;;;;;;5008148;28;20082;-80
2022/05/16 12:11:58;;;;;;;3.15;1.80;;;28.90;45.80;;;;;;5057150;28;20059;-80
2022/05/16 12:14:36;;;;;;;3.20;1.92;;;28.90;45.70;;;;;;5056572;28;20765;-81
2022/05/16 12:17:07;;;;;;;3.20;1.90;;;28.80;45.40;;;;;;5042314;28;20036;-80
2022/05/16 12:19:41;;;;;;;2.33;1.90;;;28.70;45.30;;;;;;5059346;28;20344;-82
2022/05/16 12:22:08;;;;;;;4.35;2.10;;;28.60;45.40;;;;;;5032858;28;20035;-80
2022/05/16 12:24:58;;;;;;;2.05;1.60;;;28.60;45.60;;;;;;5033859;28;20032;-82
2022/05/16 12:27:42;;;;;;;3.72;1.67;;;28.50;46.20;;;;;;5048677;28;20131;-82
2022/05/16 12:30:48;;;;;;;2.97;1.80;;;28.50;45.10;;;;;;5058791;28;20036;-82
2022/05/16 12:33:23;;;;;;;4.07;2.00;;;28.40;45.40;;;;;;5049349;28;20256;-80
2022/05/16 12:35:51;;;;;;;4.13;1.80;;;28.30;45.50;;;;;;5034819;28;20482;-81
2022/05/16 12:38:18;;;;;;;3.05;1.70;;;28.30;45.70;;;;;;5053826;28;20037;-82
2022/05/16 12:41:39;;;;;;;5.13;1.98;;;28.30;45.50;;;;;;5057962;28;20032;-79
2022/05/16 12:44:37;;;;;;;2.80;1.80;;;28.20;45.00;;;;;;5048736;28;20368;-81
2022/05/16 12:47:08;;;;;;;2.43;1.60;;;28.10;45.40;;;;;;5039139;28;20271;-81
2022/05/16 12:50:04;;;;;;;4.00;1.63;;;28.10;45.40;;;;;;5063705;28;20498;-80
2022/05/16 12:52:49;;;;;;;4.85;1.92;;;28.00;45.10;;;;;;5051014;28;20033;-81
2022/05/16 12:55:38;;;;;;;4.13;1.63;;;27.80;45.10;;;;;;5040878;28;21378;-80
2022/05/16 12:58:13;;;;;;;3.25;1.50;;;27.70;45.10;;;;;;5040290;28;20040;-82
2022/05/16 13:00:51;;;;;;;3.27;1.50;;;27.60;45.00;;;;;;5052692;28;20037;-80
2022/05/16 13:03:49;;;;;;;3.78;1.60;;;27.50;45.20;;;;;;5046070;28;20809;-82
2022/05/16 13:06:31;;;;;;;3.17;1.40;;;27.40;45.50;;;;;;5024022;28;21255;-80
2022/05/16 13:09:32;;;;;;;2.35;1.30;;;27.30;45.70;;;;;;5064271;28;20525;-82
2022/05/16 13:12:18;;;;;;;3.78;1.70;;;27.20;45.90;;;;;;5023332;28;20232;-81
2022/05/16 13:15:12;;;;;;;4.57;1.80;;;27.20;45.80;;;;;;5041666;28;20040;-81
2022/05/16 13:17:44;;;;;;;3.25;1.42;;;27.10;45.90;;;;;;5049760;28;20040;-80
2022/05/16 13:20:16;;;;;;;3.08;1.40;;;27.10;46.10;;;;;;5044188;28;20037;-83
2022/05/16 13:22:44;;;;;;;2.60;1.40;;;27.10;46.80;;;;;;5022600;28;20040;-80
2022/05/16 13:25:12;;;;;;;2.55;1.50;;;27.30;47.80;;;;;;5051823;28;20115;-80
2022/05/16 13:30:25;;;;;;;3.45;1.23;;;27.80;47.40;;;;;;5056353;28;20481;-81
2022/05/16 13:32:51;;;;;;;1.58;1.20;;;28.10;46.80;;;;;;5049961;28;20054;-79
2022/05/16 13:35:35;;;;;;;2.40;1.08;;;28.30;46.10;;;;;;5052814;28;20548;-80
2022/05/16 13:38:06;;;;;;;3.08;1.50;;;28.40;45.20;;;;;;5049877;28;20687;-82
2022/05/16 13:40:38;;;;;;;2.43;1.20;;;28.60;45.50;;;;;;5057425;28;20079;-83
2022/05/16 13:43:20;;;;;;;2.63;1.00;;;28.60;44.60;;;;;;5038559;28;20062;-81
2022/05/16 13:45:46;;;;;;;1.88;1.30;;;28.60;44.10;;;;;;5051089;28;20560;-80
2022/05/16 13:48:14;;;;;;;3.05;1.25;;;28.60;44.50;;;;;;5049528;28;20122;-84